Time;durP1;ratioP1;P1;durP2;ratioP2;P2;SDS_P1;SDS_P2;PMS_P1;PMS_P2;Temp;Humidity;BMP_temperature;BMP_pressure;BME280_temperature;BME280_humidity;BME280_pressure;Samples;Min_cycle;Max_cycle;Signal;HPM_P1;HPM_P2
2023/01/31 00:01:36;;;;;;;3.75;2.60;;;4.40;99.90;;;;;;5011873;28;20076;-77
2023/01/31 00:04:06;;;;;;;9.60;3.63;;;4.50;99.90;;;;;;5008588;28;20061;-76
2023/01/31 00:06:39;;;;;;;14.73;3.65;;;4.60;99.90;;;;;;5012548;28;20033;-77
2023/01/31 00:09:08;;;;;;;7.28;4.03;;;4.50;99.90;;;;;;5007307;28;20046;-77
2023/01/31 00:11:34;;;;;;;10.25;3.30;;;4.50;99.90;;;;;;5011686;28;20038;-77
2023/01/31 00:14:03;;;;;;;7.13;2.97;;;4.50;99.90;;;;;;5007535;28;20107;-77
2023/01/31 00:16:29;;;;;;;13.10;3.50;;;4.40;99.90;;;;;;5012484;28;20049;-77
2023/01/31 00:18:55;;;;;;;14.35;3.50;;;4.50;99.90;;;;;;5006988;28;20057;-77
2023/01/31 00:21:25;;;;;;;13.98;3.05;;;4.50;99.90;;;;;;5012962;28;20034;-76
2023/01/31 00:23:53;;;;;;;26.45;3.03;;;4.50;99.90;;;;;;5011743;28;20034;-77
2023/01/31 00:26:22;;;;;;;14.40;2.88;;;4.50;99.90;;;;;;5011171;28;20553;-77
2023/01/31 00:28:51;;;;;;;5.72;2.33;;;4.50;99.90;;;;;;5007505;28;20072;-77
2023/01/31 00:31:19;;;;;;;10.05;3.47;;;4.50;99.90;;;;;;5011468;28;20037;-77
2023/01/31 00:33:46;;;;;;;4.55;2.03;;;4.60;99.90;;;;;;5008470;28;20049;-76
2023/01/31 00:36:16;;;;;;;3.15;2.08;;;4.60;99.90;;;;;;5011591;28;20026;-76
2023/01/31 00:38:43;;;;;;;4.40;2.38;;;4.60;99.90;;;;;;5006697;28;20041;-77
2023/01/31 00:41:10;;;;;;;4.40;1.73;;;4.50;99.90;;;;;;5012713;28;20053;-77
2023/01/31 00:43:36;;;;;;;3.08;2.10;;;4.50;99.90;;;;;;5010153;28;20038;-78
2023/01/31 00:46:02;;;;;;;12.45;3.13;;;4.60;99.90;;;;;;5010923;28;20030;-77
2023/01/31 00:48:28;;;;;;;8.15;3.08;;;4.60;99.90;;;;;;5009087;28;20122;-78
2023/01/31 00:50:54;;;;;;;15.65;3.05;;;4.60;99.90;;;;;;5012191;28;20441;-77
2023/01/31 00:53:24;;;;;;;5.32;2.42;;;4.60;99.90;;;;;;5007788;28;20037;-77
2023/01/31 00:55:55;;;;;;;11.57;3.67;;;4.60;99.90;;;;;;5010656;28;20026;-77
2023/01/31 00:58:21;;;;;;;;;;;4.70;99.90;;;;;;5010832;28;20041;-78
2023/01/31 01:00:47;;;;;;;8.68;2.03;;;4.60;99.90;;;;;;5012275;28;19909;-78
2023/01/31 01:03:13;;;;;;;4.85;2.00;;;4.60;99.90;;;;;;4990113;28;20053;-77
2023/01/31 01:05:39;;;;;;;11.43;3.25;;;4.70;99.90;;;;;;5010943;28;20057;-77
2023/01/31 01:08:05;;;;;;;10.13;3.03;;;4.70;99.90;;;;;;5010192;28;20514;-77
2023/01/31 01:10:31;;;;;;;11.40;3.05;;;4.70;99.90;;;;;;5011681;28;20041;-77
2023/01/31 01:12:57;;;;;;;4.30;1.85;;;4.70;99.90;;;;;;5010881;28;20410;-77
2023/01/31 01:15:22;;;;;;;9.02;2.28;;;4.70;99.90;;;;;;5011920;28;20092;-77
2023/01/31 01:17:49;;;;;;;3.83;2.25;;;4.70;99.90;;;;;;5006553;28;20105;-77
2023/01/31 01:20:16;;;;;;;7.22;1.88;;;4.60;99.90;;;;;;5003725;28;20470;-77
2023/01/31 01:22:42;;;;;;;6.72;2.83;;;4.70;99.90;;;;;;5008598;28;20025;-77
2023/01/31 01:25:08;;;;;;;7.22;2.70;;;4.60;99.90;;;;;;5010088;28;20034;-77
2023/01/31 01:27:34;;;;;;;3.88;2.92;;;4.70;99.90;;;;;;5008822;28;20034;-77
2023/01/31 01:30:00;;;;;;;6.85;2.88;;;4.60;99.90;;;;;;5009635;28;20620;-78
2023/01/31 01:32:27;;;;;;;9.80;3.13;;;4.60;99.90;;;;;;5010122;28;20057;-76
2023/01/31 01:34:53;;;;;;;6.15;1.92;;;4.40;99.90;;;;;;4990921;28;20094;-78
2023/01/31 01:37:19;;;;;;;5.10;1.92;;;4.40;99.90;;;;;;5009992;28;20045;-78
2023/01/31 01:39:49;;;;;;;12.90;3.53;;;4.30;99.90;;;;;;5007989;28;20033;-77
2023/01/31 01:42:23;;;;;;;6.30;2.60;;;4.30;99.90;;;;;;5010031;28;20130;-77
2023/01/31 01:44:55;;;;;;;2.67;2.03;;;4.30;99.90;;;;;;5006863;28;20080;-78
2023/01/31 01:47:38;;;;;;;6.97;2.25;;;4.20;99.90;;;;;;4990879;28;20702;-77
2023/01/31 01:50:10;;;;;;;11.15;2.45;;;4.30;99.90;;;;;;5008570;28;20030;-78
2023/01/31 01:52:43;;;;;;;3.67;1.85;;;4.30;99.90;;;;;;5008797;28;20042;-77
2023/01/31 01:55:40;;;;;;;5.82;2.58;;;4.40;99.90;;;;;;5010413;28;20030;-78
2023/01/31 01:58:54;;;;;;;10.57;3.28;;;4.40;99.90;;;;;;4987251;28;20038;-77
2023/01/31 02:01:21;;;;;;;7.63;2.47;;;4.50;99.90;;;;;;4986717;28;20063;-77
2023/01/31 02:03:50;;;;;;;3.83;1.90;;;4.40;99.90;;;;;;5006361;28;20110;-77
2023/01/31 02:06:16;;;;;;;3.55;1.75;;;4.30;99.90;;;;;;4992249;28;20046;-77
2023/01/31 02:08:42;;;;;;;10.73;3.50;;;4.30;99.90;;;;;;4986747;28;20026;-77
2023/01/31 02:11:26;;;;;;;7.93;2.97;;;4.20;99.90;;;;;;5008704;28;20032;-77
2023/01/31 02:14:01;;;;;;;19.65;3.28;;;4.30;99.90;;;;;;5009616;28;20367;-77
2023/01/31 02:16:27;;;;;;;9.13;2.75;;;4.30;99.90;;;;;;4989549;28;20040;-77
2023/01/31 02:18:54;;;;;;;3.72;2.40;;;4.30;99.90;;;;;;5005905;28;20360;-77
2023/01/31 02:21:47;;;;;;;8.48;3.28;;;4.40;99.90;;;;;;5010849;28;20084;-77
2023/01/31 02:25:08;;;;;;;6.25;2.00;;;4.30;99.90;;;;;;5009478;28;20042;-77
2023/01/31 02:28:11;;;;;;;21.50;3.30;;;4.30;99.90;;;;;;4990631;28;20041;-77
2023/01/31 02:31:15;;;;;;;7.97;3.03;;;4.30;99.90;;;;;;5005745;28;20323;-77
2023/01/31 02:33:52;;;;;;;13.85;2.67;;;4.30;99.90;;;;;;5004893;28;20037;-77
2023/01/31 02:36:49;;;;;;;5.03;2.28;;;4.30;99.90;;;;;;5001688;28;20532;-77
2023/01/31 02:39:44;;;;;;;8.68;2.85;;;4.30;99.90;;;;;;5008782;28;20061;-77
2023/01/31 02:42:29;;;;;;;2.90;2.10;;;4.30;99.90;;;;;;5014727;28;20426;-77
2023/01/31 02:45:28;;;;;;;5.88;2.60;;;4.30;99.90;;;;;;4991618;28;20045;-77
2023/01/31 02:48:32;;;;;;;2.00;1.45;;;4.30;99.90;;;;;;5007917;28;20026;-77
2023/01/31 02:51:10;;;;;;;3.97;2.35;;;4.30;99.90;;;;;;5014459;28;20030;-78
2023/01/31 02:53:49;;;;;;;6.63;2.17;;;4.30;99.90;;;;;;5008552;28;20417;-76
2023/01/31 02:56:26;;;;;;;11.90;2.83;;;4.30;99.90;;;;;;5004706;28;20025;-76
2023/01/31 02:59:09;;;;;;;12.30;2.67;;;4.30;99.90;;;;;;5011893;28;20080;-77
2023/01/31 03:01:49;;;;;;;3.28;2.28;;;4.30;99.90;;;;;;5012956;28;20037;-77
2023/01/31 03:04:15;;;;;;;2.37;1.03;;;4.30;99.90;;;;;;5008054;28;20393;-77
2023/01/31 03:07:00;;;;;;;11.43;1.75;;;4.30;99.90;;;;;;5013536;28;20108;-77
2023/01/31 03:10:01;;;;;;;6.40;2.38;;;4.30;99.90;;;;;;5008312;28;20026;-78
2023/01/31 03:12:49;;;;;;;16.00;2.30;;;4.20;99.90;;;;;;4994949;28;20049;-77
2023/01/31 03:18:25;;;;;;;3.65;2.35;;;4.10;99.90;;;;;;5008701;28;20461;-77
2023/01/31 03:21:21;;;;;;;7.03;1.85;;;4.00;99.90;;;;;;5013013;28;20093;-76
2023/01/31 03:23:52;;;;;;;4.57;1.67;;;4.00;99.90;;;;;;5011508;28;20061;-77
2023/01/31 03:26:19;;;;;;;;;;;3.90;99.90;;;;;;4988732;28;20030;-77
2023/01/31 03:28:47;;;;;;;4.97;2.22;;;3.80;99.90;;;;;;5009446;28;19914;-77
2023/01/31 03:31:27;;;;;;;7.30;3.08;;;3.80;99.90;;;;;;5014088;28;20026;-77
2023/01/31 03:33:59;;;;;;;3.25;1.73;;;3.70;99.90;;;;;;5009100;28;20532;-77
2023/01/31 03:36:49;;;;;;;5.63;2.28;;;3.70;99.90;;;;;;5011756;28;20405;-77
2023/01/31 03:39:43;;;;;;;7.70;1.50;;;3.70;99.90;;;;;;5009014;28;20029;-77
2023/01/31 03:43:01;;;;;;;6.63;2.63;;;3.60;99.90;;;;;;5012692;28;20087;-77
2023/01/31 03:46:04;;;;;;;10.48;1.75;;;3.50;99.90;;;;;;4977558;28;20135;-77
2023/01/31 03:48:39;;;;;;;2.30;1.52;;;3.40;99.90;;;;;;5006250;28;20038;-77
2023/01/31 03:51:11;;;;;;;5.00;2.13;;;3.30;99.90;;;;;;5013432;28;20030;-77
2023/01/31 03:53:53;;;;;;;6.35;2.67;;;3.20;99.90;;;;;;5012797;28;20116;-77
2023/01/31 03:56:32;;;;;;;7.03;3.50;;;3.20;99.90;;;;;;5006034;28;20033;-77
2023/01/31 03:59:06;;;;;;;4.75;2.42;;;3.10;99.90;;;;;;5013159;28;20036;-77
2023/01/31 04:01:35;;;;;;;39.13;2.17;;;3.20;99.90;;;;;;5012728;28;20025;-77
2023/01/31 04:04:09;;;;;;;3.30;2.05;;;3.20;99.90;;;;;;4995914;28;20045;-77
2023/01/31 04:06:35;;;;;;;4.75;1.80;;;3.20;99.90;;;;;;5006301;28;20100;-77
2023/01/31 04:09:00;;;;;;;9.63;2.53;;;3.20;99.90;;;;;;5001280;28;20378;-77
2023/01/31 04:11:27;;;;;;;10.25;3.92;;;3.20;99.90;;;;;;5012877;28;20034;-77
2023/01/31 04:13:53;;;;;;;13.60;4.07;;;3.20;99.90;;;;;;5011310;28;20029;-77
2023/01/31 04:16:19;;;;;;;3.78;1.92;;;3.20;99.90;;;;;;5005727;28;20398;-77
2023/01/31 04:18:44;;;;;;;5.40;1.98;;;3.20;99.90;;;;;;5019125;23;20050;-69
2023/01/31 04:21:12;;;;;;;20.48;3.50;;;3.20;99.90;;;;;;5012020;28;20482;-69
2023/01/31 04:23:37;;;;;;;8.70;2.78;;;3.20;99.90;;;;;;4981311;28;20076;-69
2023/01/31 04:26:03;;;;;;;12.25;3.17;;;3.20;99.90;;;;;;4992654;28;20033;-69
2023/01/31 04:28:29;;;;;;;5.93;1.55;;;3.10;99.90;;;;;;4991060;28;20045;-69
2023/01/31 04:30:56;;;;;;;4.88;2.47;;;3.20;99.90;;;;;;4996186;28;20038;-70
2023/01/31 04:33:22;;;;;;;4.65;2.38;;;3.20;99.90;;;;;;5008321;28;20037;-69
2023/01/31 04:35:51;;;;;;;7.43;1.92;;;3.10;99.90;;;;;;5002110;28;20550;-69
2023/01/31 04:38:17;;;;;;;4.43;3.00;;;3.10;99.90;;;;;;5002356;28;20394;-69
2023/01/31 04:40:42;;;;;;;6.32;2.70;;;3.10;99.90;;;;;;5001047;28;20038;-69
2023/01/31 04:43:08;;;;;;;12.45;3.03;;;2.90;99.90;;;;;;5010002;28;20034;-66
2023/01/31 04:45:34;;;;;;;4.60;2.15;;;2.90;99.90;;;;;;5001755;28;20034;-68
2023/01/31 04:47:59;;;;;;;6.05;1.95;;;2.80;99.90;;;;;;5009335;28;20034;-67
2023/01/31 04:50:25;;;;;;;3.75;2.38;;;2.70;99.90;;;;;;5004781;28;20033;-67
2023/01/31 04:52:51;;;;;;;5.35;2.33;;;2.60;99.90;;;;;;5004373;28;20590;-67
2023/01/31 04:55:17;;;;;;;15.70;2.70;;;2.60;99.90;;;;;;5003780;28;20033;-67
2023/01/31 04:57:43;;;;;;;7.43;2.63;;;2.50;99.90;;;;;;5009933;28;20030;-68
2023/01/31 05:00:10;;;;;;;5.22;2.65;;;2.50;99.90;;;;;;5009413;28;20037;-67
2023/01/31 05:02:36;;;;;;;6.47;2.75;;;2.50;99.90;;;;;;5003432;28;20045;-68
2023/01/31 05:05:03;;;;;;;10.75;2.75;;;2.50;99.90;;;;;;5000360;28;20023;-66
2023/01/31 05:07:29;;;;;;;7.05;2.47;;;2.40;99.90;;;;;;5011090;28;20054;-68
2023/01/31 05:09:55;;;;;;;4.75;2.22;;;2.40;99.90;;;;;;4993112;28;20393;-68
2023/01/31 05:12:21;;;;;;;13.57;2.97;;;2.40;99.90;;;;;;5005157;28;20037;-67
2023/01/31 05:14:46;;;;;;;9.20;2.83;;;2.40;99.90;;;;;;5010281;28;20105;-68
2023/01/31 05:17:12;;;;;;;5.20;2.60;;;2.40;99.90;;;;;;5011431;28;20026;-68
2023/01/31 05:19:38;;;;;;;3.85;2.20;;;2.30;99.90;;;;;;5010478;28;20065;-70
2023/01/31 05:22:04;;;;;;;10.40;3.08;;;2.20;99.90;;;;;;5011633;28;20116;-68
2023/01/31 05:24:32;;;;;;;4.25;2.00;;;2.10;99.90;;;;;;4993504;28;20041;-68
2023/01/31 05:27:00;;;;;;;18.08;3.78;;;2.00;99.90;;;;;;5009153;28;20092;-71
2023/01/31 05:29:31;;;;;;;6.32;2.15;;;1.90;99.90;;;;;;5009104;28;20041;-68
2023/01/31 05:31:59;;;;;;;6.10;2.95;;;1.80;99.90;;;;;;5009877;28;20030;-68
2023/01/31 05:34:29;;;;;;;9.32;2.47;;;1.70;99.90;;;;;;5008058;28;20118;-69
2023/01/31 05:36:55;;;;;;;5.15;3.30;;;1.70;99.90;;;;;;5008472;28;20121;-69
2023/01/31 05:39:21;;;;;;;9.07;3.67;;;1.60;99.90;;;;;;5003202;28;20026;-68
2023/01/31 05:41:47;;;;;;;6.25;3.33;;;1.50;99.90;;;;;;4998806;28;20045;-69
2023/01/31 05:44:13;;;;;;;10.60;3.83;;;1.40;99.90;;;;;;4992492;28;20037;-67
2023/01/31 05:46:39;;;;;;;12.95;3.25;;;1.30;99.90;;;;;;5009189;28;20045;-68
2023/01/31 05:49:05;;;;;;;7.38;3.63;;;1.20;99.90;;;;;;5003622;28;20034;-67
2023/01/31 05:51:31;;;;;;;6.43;4.20;;;1.20;99.90;;;;;;5003752;28;20037;-67
2023/01/31 05:53:56;;;;;;;10.82;3.53;;;1.10;99.90;;;;;;4987270;28;20038;-68
2023/01/31 05:56:22;;;;;;;4.43;2.83;;;1.10;99.90;;;;;;5001496;28;20044;-68
2023/01/31 05:58:49;;;;;;;19.38;4.35;;;1.10;99.90;;;;;;5009923;28;20048;-68
2023/01/31 06:01:22;;;;;;;9.70;3.20;;;1.00;99.90;;;;;;5002588;28;20021;-68
2023/01/31 06:03:47;;;;;;;8.20;3.67;;;1.10;99.90;;;;;;5008456;28;20100;-69
2023/01/31 06:06:13;;;;;;;6.07;2.97;;;1.20;99.90;;;;;;5010159;28;20030;-68
2023/01/31 06:08:41;;;;;;;4.40;2.92;;;1.20;99.90;;;;;;5009785;28;20092;-68
2023/01/31 06:11:10;;;;;;;5.25;3.13;;;1.30;99.90;;;;;;5003397;28;20418;-67
2023/01/31 06:13:37;;;;;;;13.00;2.95;;;1.40;99.90;;;;;;5009729;28;20052;-66
2023/01/31 06:16:03;;;;;;;7.47;2.97;;;1.40;99.90;;;;;;5010061;28;20084;-67
2023/01/31 06:18:30;;;;;;;11.52;3.78;;;1.40;99.90;;;;;;5006817;28;20041;-67
2023/01/31 06:20:55;;;;;;;8.63;3.78;;;1.50;99.90;;;;;;5009331;28;20086;-67
2023/01/31 06:23:21;;;;;;;7.07;4.28;;;1.50;99.90;;;;;;5007644;28;20058;-66
2023/01/31 06:25:51;;;;;;;5.85;2.50;;;1.60;99.90;;;;;;5010132;28;20044;-67
2023/01/31 06:28:18;;;;;;;9.52;4.13;;;1.80;99.90;;;;;;4993577;28;20030;-68
2023/01/31 06:30:44;;;;;;;13.20;4.70;;;1.80;99.90;;;;;;5009633;28;20057;-67
2023/01/31 06:33:11;;;;;;;13.35;5.65;;;1.90;99.90;;;;;;5009271;28;20064;-67
2023/01/31 06:35:37;;;;;;;11.57;5.53;;;1.80;99.90;;;;;;4992564;28;20033;-66
2023/01/31 06:38:04;;;;;;;10.50;3.85;;;1.80;99.90;;;;;;5008602;28;20053;-67
2023/01/31 06:40:30;;;;;;;15.25;5.20;;;1.80;99.90;;;;;;4992585;28;20078;-69
2023/01/31 06:42:58;;;;;;;8.82;3.90;;;1.80;99.90;;;;;;5009174;28;20485;-67
2023/01/31 06:45:24;;;;;;;14.52;5.05;;;1.70;99.90;;;;;;5008549;28;20070;-68
2023/01/31 06:47:50;;;;;;;11.68;5.32;;;1.70;99.90;;;;;;5007373;28;20537;-68
2023/01/31 06:50:16;;;;;;;8.45;4.05;;;1.60;99.90;;;;;;5008654;28;20021;-68
2023/01/31 06:52:42;;;;;;;12.40;4.60;;;1.60;99.90;;;;;;5010204;28;20034;-67
2023/01/31 06:55:09;;;;;;;9.27;4.82;;;1.60;99.90;;;;;;5008089;28;20030;-68
2023/01/31 06:57:35;;;;;;;10.65;5.03;;;1.70;99.90;;;;;;5007898;28;20025;-68
2023/01/31 07:00:01;;;;;;;6.78;4.15;;;1.60;99.90;;;;;;5002591;28;20038;-68
2023/01/31 07:02:26;;;;;;;24.65;5.38;;;1.60;99.90;;;;;;4993642;28;20037;-68
2023/01/31 07:04:52;;;;;;;8.25;4.22;;;1.60;99.90;;;;;;5006916;28;20494;-68
2023/01/31 07:07:18;;;;;;;13.43;6.25;;;1.70;99.90;;;;;;5009376;28;20068;-68
2023/01/31 07:09:44;;;;;;;8.30;4.68;;;1.70;99.90;;;;;;5001976;28;20596;-68
2023/01/31 07:12:10;;;;;;;10.00;5.13;;;1.70;99.90;;;;;;5003605;28;20104;-68
2023/01/31 07:14:35;;;;;;;9.02;3.42;;;1.70;99.90;;;;;;5003810;28;20115;-68
2023/01/31 07:17:02;;;;;;;9.43;3.47;;;1.80;99.90;;;;;;5009678;28;20449;-68
2023/01/31 07:19:27;;;;;;;21.63;3.85;;;1.80;99.90;;;;;;5008905;28;20080;-69
2023/01/31 07:21:53;;;;;;;11.52;5.18;;;1.70;99.90;;;;;;5010452;28;20076;-68
2023/01/31 07:24:19;;;;;;;19.27;7.63;;;1.80;99.90;;;;;;5005360;28;20046;-68
2023/01/31 07:26:44;;;;;;;9.00;5.47;;;1.70;99.90;;;;;;5013129;28;20037;-68
2023/01/31 07:29:11;;;;;;;9.77;4.38;;;1.80;99.90;;;;;;5012563;28;20045;-68
2023/01/31 07:31:37;;;;;;;5.65;2.95;;;1.80;99.90;;;;;;5013590;28;20112;-68
2023/01/31 07:34:03;;;;;;;6.40;3.83;;;1.90;99.90;;;;;;5012352;28;20037;-67
2023/01/31 07:36:29;;;;;;;13.88;4.38;;;1.90;99.90;;;;;;5012813;28;20429;-68
2023/01/31 07:38:56;;;;;;;4.32;3.40;;;2.00;99.90;;;;;;4995095;28;20030;-67
2023/01/31 07:41:25;;;;;;;12.10;4.40;;;2.10;99.90;;;;;;5012252;28;20038;-67
2023/01/31 07:43:51;;;;;;;26.08;3.67;;;2.10;99.90;;;;;;5005468;28;20160;-68
2023/01/31 07:46:18;;;;;;;9.85;4.25;;;2.10;99.90;;;;;;5012654;28;20071;-67
2023/01/31 07:48:44;;;;;;;10.35;5.20;;;2.10;99.90;;;;;;5001193;28;20596;-68
2023/01/31 07:51:09;;;;;;;6.53;4.25;;;2.10;99.90;;;;;;4984460;28;20316;-68
2023/01/31 07:53:41;;;;;;;7.75;4.25;;;2.20;99.90;;;;;;5013254;28;20041;-68
2023/01/31 07:56:17;;;;;;;18.08;4.25;;;2.10;99.90;;;;;;5011359;28;20095;-67
2023/01/31 07:58:45;;;;;;;5.18;3.70;;;2.20;99.90;;;;;;4995296;28;20026;-67
2023/01/31 08:04:08;;;;;;;7.85;4.22;;;2.10;99.90;;;;;;5013137;28;20037;-68
2023/01/31 08:06:34;;;;;;;7.55;4.53;;;2.20;99.90;;;;;;5011364;28;20034;-67
2023/01/31 08:09:01;;;;;;;15.43;4.07;;;2.10;99.90;;;;;;5009542;28;20441;-68
2023/01/31 08:11:27;;;;;;;10.93;4.15;;;2.10;99.90;;;;;;5007226;28;20129;-68
2023/01/31 08:13:53;;;;;;;16.77;3.08;;;2.20;99.90;;;;;;5000298;28;20101;-68
2023/01/31 08:16:19;;;;;;;12.00;4.43;;;2.20;99.90;;;;;;5009519;28;20116;-68
2023/01/31 08:18:47;;;;;;;7.30;3.63;;;2.30;99.90;;;;;;5012524;28;20026;-68
2023/01/31 08:21:14;;;;;;;6.22;2.90;;;2.30;99.90;;;;;;5010504;28;20033;-68
2023/01/31 08:23:40;;;;;;;12.63;4.65;;;2.40;99.90;;;;;;4995221;28;20109;-68
2023/01/31 08:26:13;;;;;;;16.33;5.45;;;2.50;99.90;;;;;;5009955;28;20112;-68
2023/01/31 08:28:39;;;;;;;8.90;4.50;;;2.60;99.90;;;;;;5012449;28;20108;-68
2023/01/31 08:31:05;;;;;;;24.67;5.30;;;2.80;99.90;;;;;;5010069;28;20109;-68
2023/01/31 08:33:31;;;;;;;10.13;3.20;;;2.90;99.90;;;;;;5012485;28;20041;-68
2023/01/31 08:36:13;;;;;;;11.13;4.07;;;3.10;99.90;;;;;;5011936;28;20034;-68
2023/01/31 08:38:39;;;;;;;;;;;3.30;99.90;;;;;;5012303;28;20026;-68
2023/01/31 08:41:04;;;;;;;12.82;4.68;;;3.40;99.90;;;;;;5011442;28;19909;-68
2023/01/31 08:43:31;;;;;;;8.48;2.63;;;3.50;99.90;;;;;;5012252;28;20034;-68
2023/01/31 08:45:57;;;;;;;6.45;3.30;;;3.60;99.90;;;;;;5011009;28;20089;-68
2023/01/31 08:48:22;;;;;;;23.05;5.05;;;3.70;99.90;;;;;;5010486;28;20040;-67
2023/01/31 08:50:48;;;;;;;9.38;3.35;;;3.70;99.90;;;;;;5012112;28;20033;-68
2023/01/31 08:53:14;;;;;;;9.35;2.58;;;3.70;99.90;;;;;;4986732;28;20144;-67
2023/01/31 08:55:39;;;;;;;6.07;2.88;;;3.70;99.90;;;;;;5012166;28;20033;-70
2023/01/31 08:58:05;;;;;;;6.70;3.08;;;3.80;99.90;;;;;;5010217;28;20375;-69
2023/01/31 09:00:31;;;;;;;11.85;2.90;;;3.90;99.90;;;;;;5011988;28;20470;-69
2023/01/31 09:02:59;;;;;;;10.80;3.30;;;3.90;99.90;;;;;;5011011;28;20040;-68
2023/01/31 09:05:28;;;;;;;7.18;2.88;;;3.90;99.90;;;;;;5010809;28;20030;-68
2023/01/31 09:07:54;;;;;;;6.85;3.40;;;3.90;99.90;;;;;;5009922;28;20041;-68
2023/01/31 09:10:21;;;;;;;8.63;3.63;;;3.80;99.90;;;;;;5008337;28;20125;-68
2023/01/31 09:12:47;;;;;;;7.50;3.63;;;3.90;99.90;;;;;;5009811;28;20033;-69
2023/01/31 09:15:13;;;;;;;6.63;3.80;;;3.80;99.90;;;;;;5010308;28;20606;-68
2023/01/31 09:17:40;;;;;;;9.57;3.88;;;3.80;99.90;;;;;;5010375;28;20083;-68
2023/01/31 09:20:08;;;;;;;4.63;2.17;;;3.80;99.90;;;;;;5011766;28;20113;-69
2023/01/31 09:22:35;;;;;;;5.93;3.08;;;3.80;99.90;;;;;;5010918;28;20049;-68
2023/01/31 09:25:02;;;;;;;8.13;3.50;;;3.90;99.90;;;;;;4994127;28;20030;-70
2023/01/31 09:27:28;;;;;;;7.60;3.20;;;3.90;99.90;;;;;;5008728;28;20087;-69
2023/01/31 09:29:54;;;;;;;4.72;3.25;;;3.90;99.90;;;;;;4989487;28;20101;-70
2023/01/31 09:32:20;;;;;;;5.10;3.05;;;3.90;99.90;;;;;;5011334;28;20189;-69
2023/01/31 09:34:48;;;;;;;4.50;1.85;;;3.90;99.90;;;;;;4991606;28;20061;-69
2023/01/31 09:37:15;;;;;;;6.47;3.20;;;3.90;99.90;;;;;;4979016;28;20744;-70
2023/01/31 09:39:41;;;;;;;6.72;2.90;;;3.90;99.90;;;;;;4976226;28;20021;-68
2023/01/31 09:42:25;;;;;;;13.43;4.60;;;3.90;99.90;;;;;;5007508;28;20038;-69
2023/01/31 09:45:01;;;;;;;9.13;3.45;;;3.90;99.90;;;;;;4999191;28;20034;-69
2023/01/31 09:47:37;;;;;;;12.30;3.85;;;3.90;99.90;;;;;;5010523;28;20036;-69
2023/01/31 09:50:26;;;;;;;6.78;3.28;;;4.00;99.90;;;;;;4993426;28;20030;-69
2023/01/31 09:52:52;;;;;;;7.00;3.25;;;4.20;99.90;;;;;;5007848;28;20030;-70
2023/01/31 09:55:42;;;;;;;21.30;5.28;;;4.10;99.90;;;;;;5007541;28;20036;-68
2023/01/31 09:58:29;;;;;;;7.60;2.83;;;4.10;99.90;;;;;;4995172;28;20125;-69
2023/01/31 10:01:10;;;;;;;11.02;4.00;;;4.10;99.90;;;;;;5004143;28;20034;-69
2023/01/31 10:04:03;;;;;;;20.52;4.50;;;4.20;99.90;;;;;;5010919;28;20489;-68
2023/01/31 10:06:53;;;;;;;8.25;3.08;;;4.30;99.90;;;;;;5003498;28;20498;-68
2023/01/31 10:09:55;;;;;;;11.55;2.83;;;4.30;99.90;;;;;;5003134;28;20120;-68
2023/01/31 10:12:29;;;;;;;4.05;2.38;;;4.50;99.90;;;;;;5003613;28;20034;-68
2023/01/31 10:15:23;;;;;;;12.10;3.75;;;4.60;99.90;;;;;;5010565;28;20437;-69
2023/01/31 10:20:38;;;;;;;11.32;3.45;;;4.70;99.90;;;;;;5005027;28;20057;-74
2023/01/31 10:23:33;;;;;;;9.48;3.17;;;4.70;99.90;;;;;;5008703;28;20067;-74
2023/01/31 10:26:05;;;;;;;21.60;3.97;;;4.70;99.90;;;;;;5008454;28;20402;-74
2023/01/31 10:28:42;;;;;;;13.15;3.97;;;4.70;99.90;;;;;;5004774;28;20133;-74
2023/01/31 10:31:34;;;;;;;16.42;3.75;;;4.70;99.90;;;;;;4993489;28;20033;-74
2023/01/31 10:34:14;;;;;;;13.65;4.05;;;4.80;99.90;;;;;;5002730;28;20034;-74
2023/01/31 10:37:29;;;;;;;9.32;2.17;;;4.80;99.90;;;;;;5009954;28;20026;-74
2023/01/31 10:40:13;;;;;;;6.35;2.42;;;4.80;99.90;;;;;;5002481;28;20113;-74
2023/01/31 10:42:47;;;;;;;10.07;2.60;;;4.80;99.90;;;;;;5009581;28;20046;-74
2023/01/31 10:45:21;;;;;;;8.48;2.88;;;4.70;99.90;;;;;;4991959;28;20030;-73
2023/01/31 10:47:52;;;;;;;9.85;3.90;;;4.70;99.90;;;;;;5009555;28;20029;-73
2023/01/31 10:50:33;;;;;;;6.18;3.35;;;4.80;99.90;;;;;;5009709;28;20499;-73
2023/01/31 10:53:36;;;;;;;8.32;2.67;;;4.90;99.90;;;;;;4975641;28;20803;-73
2023/01/31 10:56:15;;;;;;;9.65;2.80;;;4.90;99.90;;;;;;4992709;28;20022;-75
2023/01/31 10:58:41;;;;;;;2.88;2.05;;;5.00;99.90;;;;;;5006275;28;20093;-75
2023/01/31 11:01:10;;;;;;;10.35;3.45;;;5.10;99.90;;;;;;4996597;28;20107;-74
2023/01/31 11:03:37;;;;;;;9.85;3.45;;;5.20;99.90;;;;;;5006912;28;20046;-74
2023/01/31 11:06:05;;;;;;;11.07;3.17;;;5.10;99.90;;;;;;4993727;28;20034;-74
2023/01/31 11:08:42;;;;;;;5.50;2.05;;;5.00;99.90;;;;;;5003906;28;20101;-74
2023/01/31 11:11:16;;;;;;;13.45;2.92;;;5.00;99.90;;;;;;5012726;28;20044;-74
2023/01/31 11:14:00;;;;;;;15.68;2.63;;;5.20;99.90;;;;;;5008333;28;20030;-74
2023/01/31 11:16:34;;;;;;;9.30;2.58;;;5.10;99.90;;;;;;5007230;28;20030;-73
2023/01/31 11:19:14;;;;;;;9.85;3.90;;;5.10;99.90;;;;;;4995984;28;20108;-74
2023/01/31 11:21:40;;;;;;;7.10;3.17;;;5.10;99.90;;;;;;5012881;28;20557;-72
2023/01/31 11:24:20;;;;;;;4.82;2.35;;;5.10;99.90;;;;;;5009961;28;20577;-75
2023/01/31 11:26:58;;;;;;;8.70;2.65;;;5.00;99.90;;;;;;5011874;28;20032;-75
2023/01/31 11:29:34;;;;;;;9.93;3.63;;;4.90;99.90;;;;;;5008548;28;20044;-75
2023/01/31 11:32:10;;;;;;;6.68;1.92;;;4.90;99.90;;;;;;5012576;28;20041;-75
2023/01/31 11:34:36;;;;;;;13.90;3.03;;;5.00;99.90;;;;;;5008637;28;20486;-74
2023/01/31 11:37:12;;;;;;;7.97;1.83;;;5.00;99.90;;;;;;5011790;28;20033;-75
2023/01/31 11:39:38;;;;;;;10.48;2.88;;;5.10;99.90;;;;;;5008552;28;20037;-74
2023/01/31 11:42:16;;;;;;;9.35;3.10;;;5.10;99.90;;;;;;5012341;28;20680;-74
2023/01/31 11:45:15;;;;;;;9.55;2.85;;;5.10;99.90;;;;;;5007608;28;20402;-75
2023/01/31 11:47:52;;;;;;;15.63;2.72;;;5.10;99.90;;;;;;4992552;28;20109;-75
2023/01/31 11:50:34;;;;;;;4.63;2.38;;;5.20;99.90;;;;;;4988225;28;20037;-74
2023/01/31 11:53:26;;;;;;;9.10;2.47;;;5.30;99.90;;;;;;5009718;28;20394;-74
2023/01/31 11:55:54;;;;;;;;;;;5.30;99.90;;;;;;5012271;28;20112;-74
2023/01/31 11:58:21;;;;;;;6.70;3.08;;;5.30;99.90;;;;;;5011474;28;19936;-74
2023/01/31 12:00:58;;;;;;;7.93;3.00;;;5.30;99.90;;;;;;5013052;28;20097;-75
2023/01/31 12:03:25;;;;;;;5.45;2.58;;;5.20;99.90;;;;;;5009518;28;20398;-75
2023/01/31 12:06:07;;;;;;;14.77;2.95;;;5.20;99.90;;;;;;5011718;28;20029;-74
2023/01/31 12:08:37;;;;;;;3.20;1.88;;;5.10;99.90;;;;;;5007189;28;20038;-74
2023/01/31 12:11:08;;;;;;;7.82;3.08;;;5.00;99.90;;;;;;5012774;28;20034;-74
2023/01/31 12:13:49;;;;;;;4.70;2.70;;;4.90;99.90;;;;;;5008044;28;20108;-75
2023/01/31 12:16:21;;;;;;;;;;;4.80;99.90;;;;;;5003757;28;20034;-74
2023/01/31 12:19:11;;;;;;;12.25;3.00;;;4.80;99.90;;;;;;4994592;28;19920;-75
2023/01/31 12:22:04;;;;;;;5.05;2.22;;;4.80;99.90;;;;;;5007826;28;20041;-74
2023/01/31 12:25:21;;;;;;;18.77;2.42;;;4.90;99.90;;;;;;5007600;28;20390;-75
2023/01/31 12:28:13;;;;;;;8.00;3.55;;;5.00;99.90;;;;;;4992714;28;20056;-74
2023/01/31 12:31:21;;;;;;;4.72;2.60;;;5.00;99.90;;;;;;4991839;28;20111;-75
2023/01/31 12:34:06;;;;;;;3.75;2.47;;;4.90;99.90;;;;;;5008011;28;20044;-74
2023/01/31 12:36:49;;;;;;;5.07;2.72;;;4.90;99.90;;;;;;5005871;28;20371;-74
2023/01/31 12:39:37;;;;;;;7.20;3.22;;;4.90;99.90;;;;;;5007171;28;20498;-74
2023/01/31 12:42:46;;;;;;;8.20;3.67;;;4.80;99.90;;;;;;5012640;28;20034;-74
2023/01/31 12:45:26;;;;;;;7.15;2.42;;;4.80;99.90;;;;;;5008464;28;20030;-74
2023/01/31 12:48:28;;;;;;;10.85;3.42;;;4.90;99.90;;;;;;5006780;28;20029;-74
2023/01/31 12:51:24;;;;;;;6.80;3.13;;;4.80;99.90;;;;;;5012247;28;20042;-74
2023/01/31 12:54:21;;;;;;;7.78;2.22;;;4.80;99.90;;;;;;5008755;28;20030;-75
2023/01/31 12:57:23;;;;;;;5.65;3.85;;;4.80;99.90;;;;;;4989568;28;20038;-74
2023/01/31 13:00:31;;;;;;;9.05;4.80;;;4.80;99.90;;;;;;5011220;28;20038;-75
2023/01/31 13:03:30;;;;;;;5.13;4.00;;;4.90;99.90;;;;;;4993853;28;20041;-74
2023/01/31 13:06:16;;;;;;;15.30;3.92;;;4.80;99.90;;;;;;5011007;28;20394;-74
2023/01/31 13:08:56;;;;;;;16.98;3.30;;;4.70;99.90;;;;;;5008395;28;20038;-74
2023/01/31 13:11:36;;;;;;;2.90;1.98;;;4.70;99.90;;;;;;5008288;28;20541;-75
2023/01/31 13:14:05;;;;;;;8.02;2.47;;;4.70;99.90;;;;;;5000735;28;20045;-76
2023/01/31 13:16:39;;;;;;;5.10;2.60;;;4.80;99.90;;;;;;5010909;28;20065;-73
2023/01/31 13:19:13;;;;;;;14.45;3.22;;;4.70;99.90;;;;;;5006402;28;20505;-74
2023/01/31 13:21:45;;;;;;;11.25;4.65;;;4.70;99.90;;;;;;4993327;28;20052;-74
2023/01/31 13:24:20;;;;;;;5.35;2.42;;;4.70;99.90;;;;;;5007857;28;20053;-74
2023/01/31 13:26:58;;;;;;;6.55;2.60;;;4.60;99.90;;;;;;5011030;28;20034;-74
2023/01/31 13:29:40;;;;;;;7.85;3.05;;;4.70;99.90;;;;;;5006729;28;20041;-73
2023/01/31 13:32:31;;;;;;;3.58;2.38;;;4.70;99.90;;;;;;5010085;28;20095;-74
2023/01/31 13:35:13;;;;;;;11.45;2.92;;;4.80;99.90;;;;;;5008864;28;20042;-74
2023/01/31 13:37:41;;;;;;;13.57;3.42;;;4.70;99.90;;;;;;5008323;28;20041;-74